createdAt,value
2023-04-03T00:00:21.559Z,5.50
2023-04-03T00:02:48.557Z,5.50
2023-04-03T00:05:15.569Z,5.40
2023-04-03T00:07:42.436Z,5.40
2023-04-03T00:10:09.897Z,5.40
2023-04-03T00:12:36.785Z,5.40
2023-04-03T00:15:04.088Z,5.40
2023-04-03T00:17:30.968Z,5.20
2023-04-03T00:19:57.799Z,5.30
2023-04-03T00:22:24.980Z,5.30
2023-04-03T00:24:51.802Z,5.30
2023-04-03T00:27:18.614Z,5.30
2023-04-03T00:29:45.453Z,5.30
2023-04-03T00:32:12.310Z,5.20
2023-04-03T00:34:39.092Z,5.20
2023-04-03T00:37:06.213Z,5.30
2023-04-03T00:39:33.071Z,5.20
2023-04-03T00:42:00.379Z,5.20
2023-04-03T00:44:36.048Z,5.20
2023-04-03T00:47:06.841Z,5.10
2023-04-03T00:49:33.813Z,5.10
2023-04-03T00:52:01.193Z,5.10
2023-04-03T00:54:28.189Z,5.10
2023-04-03T00:56:58.232Z,5.10
2023-04-03T00:59:34.183Z,5.00
2023-04-03T01:02:01.381Z,4.90
2023-04-03T01:04:34.831Z,4.90
2023-04-03T01:07:28.695Z,5.00
2023-04-03T01:09:59.897Z,5.00
2023-04-03T01:12:30.518Z,4.90
2023-04-03T01:15:01.148Z,4.90
2023-04-03T01:17:45.255Z,4.90
2023-04-03T01:20:37.352Z,4.90
2023-04-03T01:23:13.663Z,4.90
2023-04-03T01:25:59.473Z,4.90
2023-04-03T01:28:30.091Z,4.80
2023-04-03T01:31:08.980Z,4.80
2023-04-03T01:33:36.576Z,4.80
2023-04-03T01:36:04.447Z,4.60
2023-04-03T01:38:31.800Z,4.80
2023-04-03T01:40:58.597Z,4.70
2023-04-03T01:43:25.654Z,4.60
2023-04-03T01:45:53.948Z,4.60
2023-04-03T01:48:20.902Z,4.70
2023-04-03T01:50:47.804Z,4.70
2023-04-03T01:53:15.087Z,4.60
2023-04-03T01:55:42.015Z,4.60
2023-04-03T01:58:08.919Z,4.60
2023-04-03T02:00:36.011Z,4.60
2023-04-03T02:03:03.755Z,4.60
2023-04-03T02:05:31.181Z,4.50
2023-04-03T02:07:58.000Z,4.50
2023-04-03T02:10:24.927Z,4.50
2023-04-03T02:12:51.914Z,4.50
2023-04-03T02:15:18.892Z,4.50
2023-04-03T02:17:45.828Z,4.50
2023-04-03T02:20:12.977Z,4.40
2023-04-03T02:22:39.759Z,4.50
2023-04-03T02:25:06.690Z,4.50
2023-04-03T02:27:33.675Z,4.40
2023-04-03T02:30:00.654Z,4.40
2023-04-03T02:32:27.519Z,4.50
2023-04-03T02:34:54.381Z,4.50
2023-04-03T02:37:21.838Z,4.50
2023-04-03T02:39:48.773Z,4.50
2023-04-03T02:42:15.693Z,4.50
2023-04-03T02:44:42.666Z,4.40
2023-04-03T02:47:09.514Z,4.40
2023-04-03T02:49:36.505Z,4.40
2023-04-03T02:52:03.473Z,4.40
2023-04-03T02:54:31.637Z,4.40
2023-04-03T02:56:59.906Z,4.40
2023-04-03T02:59:26.727Z,4.40
2023-04-03T03:01:53.782Z,4.50
2023-04-03T03:04:20.809Z,4.40
2023-04-03T03:06:47.960Z,4.30
2023-04-03T03:09:15.109Z,4.40
2023-04-03T03:11:41.998Z,4.40
2023-04-03T03:14:08.875Z,4.40
2023-04-03T03:16:35.617Z,4.30
2023-04-03T03:19:02.469Z,4.30
2023-04-03T03:21:29.585Z,4.40
2023-04-03T03:23:56.479Z,4.30
2023-04-03T03:26:23.338Z,4.40
2023-04-03T03:28:50.456Z,4.40
2023-04-03T03:31:17.318Z,4.40
2023-04-03T03:33:44.171Z,4.40
2023-04-03T03:36:11.800Z,4.30
2023-04-03T03:38:38.616Z,4.30
2023-04-03T03:41:05.805Z,4.30
2023-04-03T03:43:32.639Z,4.30
2023-04-03T03:45:59.471Z,4.20
2023-04-03T03:48:26.281Z,4.30
2023-04-03T03:50:53.151Z,4.20
2023-04-03T03:53:20.418Z,4.20
2023-04-03T03:55:47.214Z,4.10
2023-04-03T03:58:14.162Z,4.20
2023-04-03T04:00:41.077Z,4.10
2023-04-03T04:03:08.094Z,4.00
2023-04-03T04:05:35.107Z,4.10
2023-04-03T04:08:02.099Z,4.20
2023-04-03T04:10:28.921Z,4.10
2023-04-03T04:12:57.401Z,4.10
2023-04-03T04:15:26.608Z,4.20
2023-04-03T04:17:54.488Z,4.20
2023-04-03T04:20:21.643Z,4.10
2023-04-03T04:22:48.693Z,4.10
2023-04-03T04:25:15.542Z,4.10
2023-04-03T04:27:42.421Z,4.10
2023-04-03T04:30:09.959Z,4.10
2023-04-03T04:32:36.776Z,4.10
2023-04-03T04:35:04.958Z,4.10
2023-04-03T04:37:31.918Z,4.00
2023-04-03T04:39:58.703Z,4.10
2023-04-03T04:42:25.782Z,4.00
2023-04-03T04:44:52.634Z,3.90
2023-04-03T04:47:19.598Z,3.90
2023-04-03T04:49:48.374Z,3.80
2023-04-03T04:52:15.426Z,3.80
2023-04-03T04:54:42.354Z,3.70
2023-04-03T04:57:09.328Z,3.80
2023-04-03T04:59:36.228Z,3.80
2023-04-03T05:02:03.185Z,3.70
2023-04-03T05:04:30.429Z,3.70
2023-04-03T05:06:57.555Z,3.60
2023-04-03T05:09:24.405Z,3.60
2023-04-03T05:11:51.459Z,3.60
2023-04-03T05:14:18.475Z,3.60
2023-04-03T05:16:45.354Z,3.50
2023-04-03T05:19:12.186Z,3.50
2023-04-03T05:21:39.028Z,3.60
2023-04-03T05:24:10.006Z,3.60
2023-04-03T05:26:36.840Z,3.70
2023-04-03T05:29:04.938Z,3.70
2023-04-03T05:31:31.901Z,3.70
2023-04-03T05:33:59.511Z,3.70
2023-04-03T05:36:26.672Z,3.80
2023-04-03T05:38:54.373Z,3.70
2023-04-03T05:41:24.180Z,3.70
2023-04-03T05:43:50.960Z,3.70
2023-04-03T05:46:20.200Z,3.70
2023-04-03T05:48:47.145Z,3.70
2023-04-03T05:51:20.634Z,3.70
2023-04-03T05:53:48.356Z,3.70
2023-04-03T05:56:15.465Z,3.80
2023-04-03T05:58:42.295Z,3.80
2023-04-03T06:01:09.252Z,3.90
2023-04-03T06:03:38.564Z,3.80
2023-04-03T06:06:07.373Z,3.80
2023-04-03T06:08:34.931Z,3.80
2023-04-03T06:11:03.098Z,3.80
2023-04-03T06:13:30.534Z,3.80
2023-04-03T06:15:58.139Z,3.80
2023-04-03T06:18:25.251Z,3.80
2023-04-03T06:20:52.248Z,3.80
2023-04-03T06:23:19.291Z,3.80
2023-04-03T06:25:46.082Z,3.80
2023-04-03T06:28:13.115Z,3.90
2023-04-03T06:30:40.327Z,3.90
2023-04-03T06:33:07.819Z,4.10
2023-04-03T06:35:36.041Z,4.30
2023-04-03T06:38:05.129Z,4.50
2023-04-03T06:40:32.058Z,4.60
2023-04-03T06:42:58.977Z,4.70
2023-04-03T06:45:26.667Z,4.80
2023-04-03T06:47:53.686Z,4.90
2023-04-03T06:50:20.793Z,5.20
2023-04-03T06:52:47.685Z,5.40
2023-04-03T06:55:14.594Z,5.60
2023-04-03T06:57:41.524Z,5.70
2023-04-03T07:00:10.193Z,5.80
2023-04-03T07:02:37.258Z,5.70
2023-04-03T07:05:04.561Z,5.80
2023-04-03T07:07:31.531Z,6.00
2023-04-03T07:09:58.520Z,5.80
2023-04-03T07:12:25.532Z,5.80
2023-04-03T07:14:52.429Z,5.90
2023-04-03T07:17:19.230Z,5.80
2023-04-03T07:19:46.538Z,5.80
2023-04-03T07:22:14.048Z,6.10
2023-04-03T07:24:40.922Z,6.30
2023-04-03T07:27:09.465Z,6.20
2023-04-03T07:29:36.834Z,6.20
2023-04-03T07:32:04.190Z,6.30
2023-04-03T07:34:31.697Z,6.60
2023-04-03T07:36:58.895Z,6.50
2023-04-03T07:39:26.575Z,6.70
2023-04-03T07:41:53.674Z,6.80
2023-04-03T07:44:20.460Z,7.00
2023-04-03T07:46:48.182Z,6.90
2023-04-03T07:49:15.428Z,7.00
2023-04-03T07:51:42.767Z,7.20
2023-04-03T07:54:09.670Z,7.30
2023-04-03T07:56:36.612Z,7.10
2023-04-03T07:59:08.940Z,7.60
2023-04-03T08:01:36.003Z,7.50
2023-04-03T08:04:03.121Z,7.30
2023-04-03T08:06:42.584Z,7.30
2023-04-03T08:09:15.372Z,7.60
2023-04-03T08:11:42.553Z,7.50
2023-04-03T08:14:12.000Z,7.80
2023-04-03T08:16:38.986Z,8.00
2023-04-03T08:19:09.558Z,8.20
2023-04-03T08:21:40.630Z,8.00
2023-04-03T08:24:07.586Z,7.80
2023-04-03T08:26:34.837Z,8.30
2023-04-03T08:29:02.162Z,8.60
2023-04-03T08:31:29.273Z,8.80
2023-04-03T08:33:58.835Z,8.90
2023-04-03T08:38:55.525Z,9.10
2023-04-03T08:41:40.522Z,9.40
2023-04-03T08:44:19.525Z,9.60
2023-04-03T08:46:52.502Z,10.10
2023-04-03T08:49:24.889Z,10.10
2023-04-03T08:51:52.752Z,10.00
2023-04-03T08:54:30.014Z,10.00
2023-04-03T08:56:59.084Z,10.40
2023-04-03T08:59:30.956Z,10.90
2023-04-03T09:02:00.381Z,11.10
2023-04-03T09:04:28.808Z,11.00
2023-04-03T09:06:59.897Z,10.70
2023-04-03T09:09:43.526Z,10.50
2023-04-03T09:12:22.483Z,10.90
2023-04-03T09:15:20.051Z,10.80
2023-04-03T09:18:05.528Z,10.90
2023-04-03T09:20:50.047Z,11.20
2023-04-03T09:23:29.017Z,10.70
2023-04-03T09:26:06.028Z,11.20
2023-04-03T09:28:43.164Z,11.20
2023-04-03T09:31:21.886Z,11.80
2023-04-03T09:33:57.229Z,11.30
2023-04-03T09:36:42.129Z,11.10
2023-04-03T09:39:15.781Z,10.60
2023-04-03T09:41:55.714Z,11.10
2023-04-03T09:44:26.111Z,11.10
2023-04-03T09:46:52.957Z,10.60
2023-04-03T09:49:20.759Z,10.60
2023-04-03T09:51:48.102Z,10.60
2023-04-03T09:54:32.962Z,11.00
2023-04-03T09:57:09.382Z,10.80
2023-04-03T09:59:37.501Z,10.70
2023-04-03T10:02:23.649Z,10.50
2023-04-03T10:05:02.518Z,10.30
2023-04-03T10:07:41.162Z,10.10
2023-04-03T10:10:23.924Z,10.40
2023-04-03T10:13:10.564Z,10.50
2023-04-03T10:15:49.944Z,10.40
2023-04-03T10:18:50.980Z,10.60
2023-04-03T10:21:36.743Z,10.40
2023-04-03T10:24:07.064Z,10.60
2023-04-03T10:26:53.968Z,10.90
2023-04-03T10:29:35.449Z,11.10
2023-04-03T10:32:20.489Z,10.90
2023-04-03T10:35:02.402Z,10.90
2023-04-03T10:37:43.987Z,10.90
2023-04-03T10:40:43.104Z,11.00
2023-04-03T10:43:42.709Z,11.40
2023-04-03T10:46:17.583Z,11.70
2023-04-03T10:49:11.295Z,11.90
2023-04-03T10:51:48.605Z,11.70
2023-04-03T10:54:31.731Z,11.40
2023-04-03T10:57:11.780Z,11.30
2023-04-03T10:59:45.898Z,11.30
2023-04-03T11:02:30.242Z,11.10
2023-04-03T11:05:16.467Z,11.30
2023-04-03T11:07:48.781Z,11.30
2023-04-03T11:10:37.057Z,11.80
2023-04-03T11:13:14.855Z,11.20
2023-04-03T11:15:42.763Z,11.50
2023-04-03T11:18:17.100Z,11.40
2023-04-03T11:21:00.042Z,11.50
2023-04-03T11:23:35.637Z,11.40
2023-04-03T11:26:22.086Z,11.40
2023-04-03T11:29:00.802Z,11.20
2023-04-03T11:31:46.677Z,11.10
2023-04-03T11:34:24.993Z,11.10
2023-04-03T11:37:00.547Z,11.00
2023-04-03T11:39:35.681Z,11.00
2023-04-03T11:42:29.022Z,11.30
2023-04-03T11:45:27.888Z,11.50
2023-04-03T11:48:16.757Z,11.50
2023-04-03T11:50:49.978Z,11.80
2023-04-03T11:53:16.798Z,11.80
2023-04-03T11:56:03.191Z,12.20
2023-04-03T11:58:37.391Z,11.90
2023-04-03T12:01:12.520Z,12.00
2023-04-03T12:03:43.521Z,11.90
2023-04-03T12:06:14.703Z,12.10
2023-04-03T12:08:42.024Z,12.00
2023-04-03T12:11:14.659Z,11.80
2023-04-03T12:13:53.497Z,12.10
2023-04-03T12:16:23.445Z,12.50
2023-04-03T12:18:50.338Z,12.20
2023-04-03T12:21:20.024Z,12.70
2023-04-03T12:24:11.700Z,11.90
2023-04-03T12:26:48.992Z,12.10
2023-04-03T12:29:22.634Z,12.20
2023-04-03T12:32:08.438Z,13.20
2023-04-03T12:35:00.143Z,12.90
2023-04-03T12:37:47.903Z,13.50
2023-04-03T12:40:38.913Z,13.60
2023-04-03T12:43:36.560Z,14.00
2023-04-03T12:46:09.629Z,13.50
2023-04-03T12:48:54.769Z,13.60
2023-04-03T12:51:41.263Z,13.80
2023-04-03T12:54:31.296Z,12.90
2023-04-03T12:57:18.949Z,12.70
2023-04-03T12:59:49.155Z,12.70
2023-04-03T13:02:34.969Z,13.30
2023-04-03T13:05:08.852Z,13.00
2023-04-03T13:07:39.794Z,13.20
2023-04-03T13:10:09.832Z,13.10
2023-04-03T13:12:47.628Z,12.60
2023-04-03T13:15:26.844Z,12.30
2023-04-03T13:17:55.104Z,13.20
2023-04-03T13:20:35.670Z,13.10
2023-04-03T13:23:09.896Z,12.70
2023-04-03T13:25:43.817Z,13.00
2023-04-03T13:28:19.158Z,13.20
2023-04-03T13:31:01.346Z,13.30
2023-04-03T13:33:32.420Z,13.50
2023-04-03T13:36:07.491Z,13.30
2023-04-03T13:38:35.100Z,13.30
2023-04-03T13:41:06.350Z,13.70
2023-04-03T13:43:36.541Z,12.90
2023-04-03T13:46:12.803Z,13.30
2023-04-03T13:48:48.459Z,13.20
2023-04-03T13:51:16.074Z,12.80
2023-04-03T13:53:58.695Z,12.70
2023-04-03T13:56:39.654Z,12.70
2023-04-03T13:59:17.372Z,13.30
2023-04-03T14:02:07.748Z,13.30
2023-04-03T14:04:46.074Z,13.00
2023-04-03T14:07:14.075Z,12.60
2023-04-03T14:09:41.142Z,12.70
2023-04-03T14:12:31.276Z,12.70
2023-04-03T14:15:04.934Z,12.90
2023-04-03T14:17:32.484Z,13.20
2023-04-03T14:20:01.842Z,12.90
2023-04-03T14:22:32.207Z,13.00
2023-04-03T14:24:59.864Z,12.50
2023-04-03T14:27:40.000Z,12.50
2023-04-03T14:30:10.613Z,12.50
2023-04-03T14:32:38.024Z,12.40
2023-04-03T14:35:05.606Z,12.10
2023-04-03T14:37:32.780Z,12.20
2023-04-03T14:40:17.050Z,12.20
2023-04-03T14:42:45.322Z,12.30
2023-04-03T14:45:14.095Z,11.70
2023-04-03T14:47:48.608Z,11.90
2023-04-03T14:50:19.289Z,11.70
2023-04-03T14:52:46.548Z,12.00
2023-04-03T14:55:17.682Z,12.00
2023-04-03T14:57:44.962Z,12.40
2023-04-03T15:00:18.119Z,12.20
2023-04-03T15:02:46.451Z,12.10
2023-04-03T15:05:14.670Z,11.60
2023-04-03T15:07:54.666Z,11.50
2023-04-03T15:10:27.059Z,11.70
2023-04-03T15:12:55.171Z,11.80
2023-04-03T15:15:23.113Z,11.50
2023-04-03T15:17:55.995Z,11.20
2023-04-03T15:20:27.768Z,11.50
2023-04-03T15:22:55.157Z,11.60
2023-04-03T15:25:22.141Z,11.50
2023-04-03T15:27:49.198Z,11.30
2023-04-03T15:30:19.242Z,11.30
2023-04-03T15:32:46.334Z,11.50
2023-04-03T15:35:13.290Z,11.30
2023-04-03T15:37:40.188Z,11.40
2023-04-03T15:40:08.068Z,10.90
2023-04-03T15:42:35.621Z,10.80
2023-04-03T15:45:02.662Z,10.90
2023-04-03T15:47:30.126Z,10.80
2023-04-03T15:49:57.372Z,10.90
2023-04-03T15:52:24.230Z,10.80
2023-04-03T15:54:51.008Z,10.60
2023-04-03T15:57:17.941Z,10.70
2023-04-03T15:59:44.773Z,10.50
2023-04-03T16:02:14.325Z,10.50
2023-04-03T16:04:42.132Z,10.50
2023-04-03T16:07:09.138Z,10.30
2023-04-03T16:09:36.985Z,10.30
2023-04-03T16:12:04.585Z,10.20
2023-04-03T16:14:31.569Z,10.10
2023-04-03T16:17:02.163Z,10.10
2023-04-03T16:19:30.721Z,10.10
2023-04-03T16:21:57.811Z,10.00
2023-04-03T16:24:24.724Z,10.30
2023-04-03T16:26:51.510Z,10.40
2023-04-03T16:29:18.467Z,10.20
2023-04-03T16:31:45.674Z,10.20
2023-04-03T16:34:13.074Z,9.80
2023-04-03T16:36:39.964Z,9.80
2023-04-03T16:39:06.813Z,10.00
2023-04-03T16:41:33.556Z,9.80
2023-04-03T16:44:00.344Z,9.80
2023-04-03T16:46:27.639Z,9.60
2023-04-03T16:48:54.665Z,9.60
2023-04-03T16:51:21.643Z,9.70
2023-04-03T16:53:48.395Z,9.80
2023-04-03T16:56:15.614Z,9.60
2023-04-03T16:58:42.574Z,9.60
2023-04-03T17:01:14.721Z,9.60
2023-04-03T17:03:41.854Z,9.60
2023-04-03T17:06:09.138Z,9.80
2023-04-03T17:08:36.223Z,9.80
2023-04-03T17:11:03.086Z,9.70
2023-04-03T17:13:33.121Z,9.60
2023-04-03T17:16:00.863Z,9.40
2023-04-03T17:18:28.400Z,9.40
2023-04-03T17:20:57.210Z,9.60
2023-04-03T17:23:26.495Z,9.40
2023-04-03T17:25:59.617Z,9.20
2023-04-03T17:28:28.941Z,9.00
2023-04-03T17:30:57.282Z,9.10
2023-04-03T17:33:24.215Z,9.00
2023-04-03T17:35:51.212Z,9.00
2023-04-03T17:38:18.508Z,8.90
2023-04-03T17:40:45.375Z,8.70
2023-04-03T17:43:12.484Z,8.80
2023-04-03T17:45:39.826Z,8.90
2023-04-03T17:48:07.018Z,8.90
2023-04-03T17:50:34.141Z,8.80
2023-04-03T17:53:01.086Z,8.60
2023-04-03T17:55:27.926Z,8.50
2023-04-03T17:57:54.702Z,8.60
2023-04-03T18:00:21.698Z,8.60
2023-04-03T18:02:51.766Z,8.60
2023-04-03T18:05:18.689Z,8.50
2023-04-03T18:07:45.771Z,8.40
2023-04-03T18:10:14.784Z,8.30
2023-04-03T18:12:42.562Z,8.40
2023-04-03T18:15:10.517Z,8.40
2023-04-03T18:17:37.651Z,8.20
2023-04-03T18:20:06.089Z,8.20
2023-04-03T18:22:33.876Z,8.20
2023-04-03T18:25:00.864Z,8.10
2023-04-03T18:27:28.278Z,8.10
2023-04-03T18:30:00.594Z,8.10
2023-04-03T18:32:27.531Z,8.10
2023-04-03T18:34:54.629Z,8.20
2023-04-03T18:37:23.881Z,8.10
2023-04-03T18:39:50.720Z,8.10
2023-04-03T18:42:21.773Z,8.20
2023-04-03T18:44:51.911Z,8.20
2023-04-03T18:47:19.070Z,8.20
2023-04-03T18:49:46.307Z,8.00
2023-04-03T18:52:13.264Z,7.90
2023-04-03T18:54:41.174Z,8.00
2023-04-03T18:57:08.038Z,8.00
2023-04-03T18:59:34.866Z,8.00
2023-04-03T19:02:01.805Z,8.10
2023-04-03T19:04:29.706Z,8.00
2023-04-03T19:06:56.736Z,7.90
2023-04-03T19:09:25.966Z,7.90
2023-04-03T19:11:52.784Z,7.90
2023-04-03T19:14:19.606Z,7.80
2023-04-03T19:16:46.660Z,7.80
2023-04-03T19:19:13.740Z,7.70
2023-04-03T19:21:41.965Z,7.80
2023-04-03T19:24:13.642Z,7.60
2023-04-03T19:26:42.577Z,7.70
2023-04-03T19:29:11.511Z,7.70
2023-04-03T19:31:39.055Z,7.70
2023-04-03T19:34:07.509Z,7.60
2023-04-03T19:36:35.198Z,7.70
2023-04-03T19:39:05.326Z,7.60
2023-04-03T19:41:35.330Z,7.60
2023-04-03T19:44:03.733Z,7.50
2023-04-03T19:46:31.113Z,7.60
2023-04-03T19:48:57.998Z,7.60
2023-04-03T19:51:24.949Z,7.60
2023-04-03T19:53:52.042Z,7.50
2023-04-03T19:56:21.333Z,7.50
2023-04-03T19:58:54.186Z,7.50
2023-04-03T20:01:26.919Z,7.60
2023-04-03T20:03:53.869Z,7.50
2023-04-03T20:06:21.651Z,7.50
2023-04-03T20:08:49.321Z,7.40
2023-04-03T20:11:16.220Z,7.40
2023-04-03T20:13:43.064Z,7.50
2023-04-03T20:16:10.289Z,7.40
2023-04-03T20:18:38.763Z,7.40
2023-04-03T20:21:06.787Z,7.30
2023-04-03T20:23:34.773Z,7.30
2023-04-03T20:26:10.544Z,7.20
2023-04-03T20:28:43.019Z,7.20
2023-04-03T20:31:12.053Z,7.20
2023-04-03T20:33:39.070Z,7.20
2023-04-03T20:36:06.212Z,7.10
2023-04-03T20:38:33.053Z,7.10
2023-04-03T20:41:00.398Z,7.20
2023-04-03T20:43:28.407Z,7.10
2023-04-03T20:45:55.662Z,7.00
2023-04-03T20:48:22.560Z,7.00
2023-04-03T20:50:49.491Z,7.00
2023-04-03T20:53:18.952Z,7.00
2023-04-03T20:56:01.487Z,6.90
2023-04-03T20:58:35.708Z,6.90
2023-04-03T21:01:02.673Z,7.00
2023-04-03T21:03:31.275Z,6.80
2023-04-03T21:06:01.078Z,6.90
2023-04-03T21:09:08.249Z,6.80
2023-04-03T21:12:12.739Z,6.80
2023-04-03T21:15:17.218Z,6.90
2023-04-03T21:18:15.566Z,6.70
2023-04-03T21:20:43.634Z,6.70
2023-04-03T21:23:11.945Z,6.70
2023-04-03T21:25:39.099Z,6.80
2023-04-03T21:28:06.033Z,6.70
2023-04-03T21:30:32.903Z,6.70
2023-04-03T21:32:59.720Z,6.70
2023-04-03T21:35:26.488Z,6.70
2023-04-03T21:37:53.327Z,6.70
2023-04-03T21:40:20.197Z,6.60
2023-04-03T21:42:47.379Z,6.60
2023-04-03T21:45:16.185Z,6.60
2023-04-03T21:47:43.982Z,6.60
2023-04-03T21:50:11.476Z,6.50
2023-04-03T21:52:38.346Z,6.50
2023-04-03T21:55:05.443Z,6.40
2023-04-03T21:57:32.279Z,6.50
2023-04-03T21:59:59.192Z,6.40
2023-04-03T22:02:29.923Z,6.40
2023-04-03T22:04:56.856Z,6.30
2023-04-03T22:07:23.736Z,6.30
2023-04-03T22:09:50.811Z,6.20
2023-04-03T22:12:17.661Z,6.10
2023-04-03T22:14:44.564Z,6.20
2023-04-03T22:17:11.519Z,6.30
2023-04-03T22:19:38.488Z,6.20
2023-04-03T22:22:05.353Z,6.20
2023-04-03T22:24:32.127Z,6.20
2023-04-03T22:26:59.114Z,6.10
2023-04-03T22:29:25.909Z,6.10
2023-04-03T22:31:52.781Z,6.00
2023-04-03T22:34:19.831Z,6.00
2023-04-03T22:36:46.700Z,6.00
2023-04-03T22:39:15.303Z,6.00
2023-04-03T22:41:45.246Z,6.00
2023-04-03T22:44:12.800Z,6.00
2023-04-03T22:46:39.746Z,6.00
2023-04-03T22:49:06.725Z,6.00
2023-04-03T22:51:33.519Z,6.00
2023-04-03T22:54:00.634Z,6.00
2023-04-03T22:56:27.800Z,6.00
2023-04-03T22:58:55.389Z,6.00
2023-04-03T23:01:24.195Z,6.00
2023-04-03T23:03:51.816Z,5.90
2023-04-03T23:06:18.726Z,6.00
2023-04-03T23:08:45.587Z,6.00
2023-04-03T23:11:12.702Z,6.00
2023-04-03T23:13:39.633Z,5.90
2023-04-03T23:16:06.844Z,5.80
2023-04-03T23:18:33.987Z,5.80
2023-04-03T23:21:03.979Z,5.80
2023-04-03T23:23:32.054Z,5.80
2023-04-03T23:26:01.494Z,5.80
2023-04-03T23:28:29.136Z,5.70
2023-04-03T23:31:01.619Z,5.70
2023-04-03T23:33:29.614Z,5.70
2023-04-03T23:35:58.524Z,5.60
2023-04-03T23:38:26.120Z,5.70
2023-04-03T23:40:53.001Z,5.70
2023-04-03T23:43:20.180Z,5.60
2023-04-03T23:45:47.383Z,5.60
2023-04-03T23:48:14.507Z,5.50
2023-04-03T23:50:42.690Z,5.40
2023-04-03T23:53:09.609Z,5.30
2023-04-03T23:55:36.774Z,5.30
2023-04-03T23:58:03.664Z,5.30
